Time,TemperatureF,DewpointF,PressureIn,WindDirection,WindDirectionDegrees,WindSpeedMPH,WindSpeedGustMPH,Humidity,HourlyPrecipIn,Conditions,Clouds,dailyrainin,SoftwareType,DateUTC
2013-05-18 06:50:00,66.2,58.4,28.91,WSW,248,0.0,0.0,76,0.04,,,0.04,WSDL version 420,2013-05-18 10:50:00,
2013-05-18 06:52:00,66.2,58.4,28.91,WSW,248,0.0,0.0,76,0.04,,,0.04,WSDL version 420,2013-05-18 10:52:00,
2013-05-18 06:54:00,66.2,58.4,28.91,North,-999,-999.0,-999.0,76,0.04,,,0.04,WSDL version 420,2013-05-18 10:54:00,
2013-05-18 06:56:00,66.2,58.5,28.91,North,-999,-999.0,-999.0,77,0.04,,,0.04,WSDL version 420,2013-05-18 10:56:00,
2013-05-18 07:00:00,66.2,58.6,28.94,North,-999,-999.0,-999.0,76,0.09,,,0.09,WSDL version 420,2013-05-18 11:00:00,
2013-05-18 07:02:00,66.2,58.5,28.94,WSW,248,0.0,0.0,77,0.09,,,0.09,WSDL version 420,2013-05-18 11:02:00,
2013-05-18 07:04:00,66.2,58.6,28.94,North,-999,-999.0,-999.0,77,0.09,,,0.09,WSDL version 420,2013-05-18 11:04:00,
2013-05-18 07:06:00,66.2,58.7,28.94,North,-999,-999.0,-999.0,77,0.09,,,0.09,WSDL version 420,2013-05-18 11:06:00,
2013-05-18 07:08:00,66.2,58.8,28.94,WSW,248,0.0,0.0,77,0.09,,,0.09,WSDL version 420,2013-05-18 11:08:00,
2013-05-18 07:12:00,66.2,58.8,28.94,East,90,0.0,0.0,77,0.09,,,0.09,WSDL version 420,2013-05-18 11:12:00,
2013-05-18 07:14:00,66.2,58.8,28.94,North,0,0.0,0.0,77,0.13,,,0.13,WSDL version 420,2013-05-18 11:14:00,
2013-05-18 07:18:00,66.2,58.8,28.94,North,-999,-999.0,-999.0,77,0.13,,,0.13,WSDL version 420,2013-05-18 11:18:00,
2013-05-18 07:20:00,66.2,58.8,28.94,North,-999,-999.0,-999.0,77,0.13,,,0.13,WSDL version 420,2013-05-18 11:20:00,
2013-05-18 07:22:00,66.2,58.8,28.94,North,-999,-999.0,-999.0,77,0.13,,,0.13,WSDL version 420,2013-05-18 11:22:00,
2013-05-18 07:26:00,66.2,58.8,28.94,NNW,338,0.0,0.0,77,0.13,,,0.13,WSDL version 420,2013-05-18 11:26:00,
2013-05-18 07:28:00,66.2,58.8,28.94,NNW,338,0.0,0.0,77,0.13,,,0.13,WSDL version 420,2013-05-18 11:28:00,
2013-05-18 07:32:00,66.2,58.8,28.94,ESE,113,0.0,0.0,77,0.13,,,0.13,WSDL version 420,2013-05-18 11:32:00,
2013-05-18 07:34:00,66.2,58.8,28.94,ESE,113,0.0,0.0,77,0.13,,,0.13,WSDL version 420,2013-05-18 11:34:00,
2013-05-18 07:36:00,66.2,58.8,28.94,ENE,68,0.0,0.0,77,0.13,,,0.13,WSDL version 420,2013-05-18 11:36:00,
2013-05-18 07:40:00,66.2,58.9,28.94,North,-999,-999.0,-999.0,78,0.17,,,0.17,WSDL version 420,2013-05-18 11:40:00,
2013-05-18 07:44:00,66.2,59.1,28.94,NE,45,0.0,0.0,78,0.17,,,0.17,WSDL version 420,2013-05-18 11:44:00,
2013-05-18 07:46:00,66.2,59.1,28.94,North,-999,-999.0,-999.0,78,0.17,,,0.17,WSDL version 420,2013-05-18 11:46:00,
2013-05-18 07:48:00,66.2,59.1,28.94,SSE,158,0.0,0.0,78,0.17,,,0.17,WSDL version 420,2013-05-18 11:48:00,
2013-05-18 07:50:00,66.2,59.2,28.94,ENE,68,0.0,0.0,78,0.13,,,0.17,WSDL version 420,2013-05-18 11:50:00,
2013-05-18 07:52:00,66.3,59.3,28.94,North,-999,-999.0,-999.0,78,0.17,,,0.21,WSDL version 420,2013-05-18 11:52:00,
2013-05-18 07:56:00,66.4,59.3,28.94,North,0,0.0,0.0,78,0.17,,,0.21,WSDL version 420,2013-05-18 11:56:00,
2013-05-18 07:58:00,66.4,59.3,28.94,North,360,0.0,0.0,78,0.17,,,0.21,WSDL version 420,2013-05-18 11:58:00,
2013-05-18 08:00:00,66.4,59.3,28.94,North,0,0.0,0.0,78,0.12,,,0.21,WSDL version 420,2013-05-18 12:00:00,
2013-05-18 08:02:00,66.4,59.3,28.94,North,-999,-999.0,-999.0,78,0.16,,,0.25,WSDL version 420,2013-05-18 12:02:00,
2013-05-18 08:04:00,66.4,59.3,28.94,SE,135,0.0,0.0,78,0.16,,,0.25,WSDL version 420,2013-05-18 12:04:00,
2013-05-18 08:06:00,66.4,59.3,28.94,SE,135,0.0,0.0,78,0.16,,,0.25,WSDL version 420,2013-05-18 12:06:00,
2013-05-18 08:08:00,66.4,59.3,28.94,West,270,0.0,0.0,78,0.16,,,0.25,WSDL version 420,2013-05-18 12:08:00,
2013-05-18 08:12:00,66.4,59.3,28.97,North,-999,-999.0,-999.0,78,0.21,,,0.30,WSDL version 420,2013-05-18 12:12:00,
2013-05-18 08:14:00,66.4,59.3,28.97,NW,315,0.0,0.0,78,0.21,,,0.30,WSDL version 420,2013-05-18 12:14:00,
2013-05-18 08:18:00,66.4,59.3,28.97,NW,315,0.0,0.0,78,0.17,,,0.30,WSDL version 420,2013-05-18 12:18:00,
2013-05-18 08:20:00,66.4,59.4,28.97,North,0,0.0,0.0,79,0.17,,,0.30,WSDL version 420,2013-05-18 12:20:00,
2013-05-18 08:23:00,66.4,59.7,28.97,North,-999,-999.0,-999.0,79,0.17,,,0.30,WSDL version 420,2013-05-18 12:23:00,
2013-05-18 08:25:00,66.4,59.7,28.97,WSW,248,0.0,0.0,79,0.17,,,0.30,WSDL version 420,2013-05-18 12:25:00,
2013-05-18 08:29:00,66.4,59.7,28.97,WSW,248,0.0,0.0,79,0.17,,,0.30,WSDL version 420,2013-05-18 12:29:00,
2013-05-18 08:33:00,66.4,59.7,28.97,North,-999,-999.0,-999.0,79,0.17,,,0.30,WSDL version 420,2013-05-18 12:33:00,
2013-05-18 08:35:00,66.4,59.7,28.97,West,270,0.0,0.0,79,0.20,,,0.33,WSDL version 420,2013-05-18 12:35:00,
2013-05-18 08:37:00,66.4,59.7,28.97,North,-999,-999.0,-999.0,79,0.20,,,0.33,WSDL version 420,2013-05-18 12:37:00,
2013-05-18 08:41:00,66.4,59.7,28.97,North,0,0.0,0.0,79,0.16,,,0.33,WSDL version 420,2013-05-18 12:41:00,
2013-05-18 08:43:00,66.4,59.7,28.97,West,270,0.0,0.0,79,0.16,,,0.33,WSDL version 420,2013-05-18 12:43:00,
2013-05-18 08:49:00,66.5,59.8,28.97,North,-999,-999.0,-999.0,79,0.16,,,0.33,WSDL version 420,2013-05-18 12:49:00,
2013-05-18 08:51:00,66.6,59.9,28.97,West,270,0.0,0.0,79,0.12,,,0.33,WSDL version 420,2013-05-18 12:51:00,
2013-05-18 08:55:00,66.6,59.9,28.97,North,0,0.0,0.0,79,0.12,,,0.33,WSDL version 420,2013-05-18 12:55:00,
2013-05-18 08:57:00,66.6,60.0,28.97,North,-999,-999.0,-999.0,80,0.12,,,0.33,WSDL version 420,2013-05-18 12:57:00,
2013-05-18 09:03:00,66.7,60.4,28.97,North,-999,-999.0,-999.0,80,0.13,,,0.38,WSDL version 420,2013-05-18 13:03:00,
2013-05-18 09:05:00,66.7,60.4,28.97,North,-999,-999.0,-999.0,80,0.13,,,0.38,WSDL version 420,2013-05-18 13:05:00,
2013-05-18 09:07:00,66.7,60.4,28.97,South,180,0.0,0.0,80,0.13,,,0.38,WSDL version 420,2013-05-18 13:07:00,
2013-05-18 09:09:00,66.7,60.4,28.97,South,180,0.0,0.0,80,0.13,,,0.38,WSDL version 420,2013-05-18 13:09:00,
2013-05-18 09:13:00,66.7,60.4,28.97,SE,135,0.0,0.0,80,0.12,,,0.42,WSDL version 420,2013-05-18 13:13:00,
2013-05-18 09:15:00,66.7,60.4,28.97,SE,135,0.0,0.0,80,0.12,,,0.42,WSDL version 420,2013-05-18 13:15:00,
2013-05-18 09:17:00,66.7,60.4,28.97,North,-999,-999.0,-999.0,80,0.12,,,0.42,WSDL version 420,2013-05-18 13:17:00,
2013-05-18 09:19:00,66.7,60.4,28.97,North,-999,-999.0,-999.0,80,0.12,,,0.42,WSDL version 420,2013-05-18 13:19:00,
2013-05-18 09:23:00,66.7,60.4,28.97,North,-999,-999.0,-999.0,80,0.16,,,0.46,WSDL version 420,2013-05-18 13:23:00,
2013-05-18 09:25:00,66.7,60.4,28.97,SE,135,0.0,0.0,80,0.16,,,0.46,WSDL version 420,2013-05-18 13:25:00,
2013-05-18 09:27:00,66.7,60.3,28.97,North,-999,-999.0,-999.0,80,0.16,,,0.46,WSDL version 420,2013-05-18 13:27:00,
2013-05-18 09:29:00,66.6,60.2,28.97,North,-999,-999.0,-999.0,80,0.16,,,0.46,WSDL version 420,2013-05-18 13:29:00,
2013-05-18 09:31:00,66.6,60.2,28.97,North,-999,-999.0,-999.0,80,0.16,,,0.46,WSDL version 420,2013-05-18 13:31:00,
2013-05-18 09:33:00,66.6,60.2,28.97,NE,45,0.0,0.0,80,0.20,,,0.50,WSDL version 420,2013-05-18 13:33:00,
2013-05-18 09:35:00,66.6,60.2,28.97,North,-999,-999.0,-999.0,80,0.17,,,0.50,WSDL version 420,2013-05-18 13:35:00,
2013-05-18 09:37:00,66.6,60.3,28.97,NE,45,0.0,0.0,80,0.17,,,0.50,WSDL version 420,2013-05-18 13:37:00,
2013-05-18 09:39:00,66.7,60.3,28.97,North,0,0.0,0.0,80,0.17,,,0.50,WSDL version 420,2013-05-18 13:39:00,
2013-05-18 09:41:00,66.7,60.4,28.97,NE,45,0.0,0.0,80,0.17,,,0.50,WSDL version 420,2013-05-18 13:41:00,
2013-05-18 09:47:00,66.7,60.4,28.97,North,-999,-999.0,-999.0,80,0.17,,,0.50,WSDL version 420,2013-05-18 13:47:00,
2013-05-18 09:49:00,66.7,60.4,28.97,NE,45,0.0,0.0,80,0.17,,,0.50,WSDL version 420,2013-05-18 13:49:00,
2013-05-18 09:53:00,66.7,60.4,28.97,NE,45,0.0,0.0,80,0.21,,,0.54,WSDL version 420,2013-05-18 13:53:00,
2013-05-18 09:55:00,66.7,60.5,28.97,North,-999,-999.0,-999.0,81,0.21,,,0.54,WSDL version 420,2013-05-18 13:55:00,
2013-05-18 09:57:00,66.7,60.6,28.97,NE,45,0.0,0.0,81,0.21,,,0.54,WSDL version 420,2013-05-18 13:57:00,
2013-05-18 09:59:00,66.8,60.8,28.97,NE,45,0.0,0.0,81,0.21,,,0.54,WSDL version 420,2013-05-18 13:59:00,
2013-05-18 10:05:00,66.9,60.9,28.97,NE,45,0.0,0.0,81,0.16,,,0.54,WSDL version 420,2013-05-18 14:05:00,
2013-05-18 10:07:00,66.9,60.9,28.97,NE,45,0.0,0.0,81,0.16,,,0.54,WSDL version 420,2013-05-18 14:07:00,
2013-05-18 10:09:00,66.9,60.9,28.97,NE,45,0.0,0.0,81,0.16,,,0.54,WSDL version 420,2013-05-18 14:09:00,
2013-05-18 10:15:00,67.0,61.0,28.97,NE,45,0.0,0.0,81,0.12,,,0.54,WSDL version 420,2013-05-18 14:15:00,
2013-05-18 10:17:00,67.1,61.1,28.97,North,0,0.0,0.0,81,0.12,,,0.54,WSDL version 420,2013-05-18 14:17:00,
2013-05-18 10:19:00,67.1,61.1,28.97,North,-999,-999.0,-999.0,81,0.12,,,0.54,WSDL version 420,2013-05-18 14:19:00,
2013-05-18 10:23:00,67.1,61.1,28.97,NE,45,0.0,0.0,81,0.08,,,0.54,WSDL version 420,2013-05-18 14:23:00,
2013-05-18 10:25:00,67.1,61.1,28.97,North,-999,-999.0,-999.0,81,0.08,,,0.54,WSDL version 420,2013-05-18 14:25:00,
2013-05-18 10:27:00,67.1,61.1,28.97,NE,45,0.0,0.0,81,0.08,,,0.54,WSDL version 420,2013-05-18 14:27:00,
2013-05-18 10:29:00,67.1,61.1,28.97,NE,45,0.0,0.0,81,0.08,,,0.54,WSDL version 420,2013-05-18 14:29:00,
2013-05-18 10:31:00,67.1,61.1,28.97,North,0,0.0,0.0,81,0.12,,,0.58,WSDL version 420,2013-05-18 14:31:00,
2013-05-18 10:33:00,67.2,61.2,28.97,North,-999,-999.0,-999.0,81,0.08,,,0.58,WSDL version 420,2013-05-18 14:33:00,
2013-05-18 10:35:00,67.3,61.3,28.97,North,-999,-999.0,-999.0,81,0.08,,,0.58,WSDL version 420,2013-05-18 14:35:00,
2013-05-18 10:39:00,67.3,61.5,28.97,NE,45,0.0,0.0,82,0.08,,,0.58,WSDL version 420,2013-05-18 14:39:00,
2013-05-18 10:41:00,67.3,61.7,28.97,NE,45,0.0,0.0,82,0.08,,,0.58,WSDL version 420,2013-05-18 14:41:00,
2013-05-18 10:43:00,67.3,61.7,29.00,NE,45,0.0,0.0,82,0.08,,,0.58,WSDL version 420,2013-05-18 14:43:00,
2013-05-18 10:47:00,67.3,61.7,29.00,North,-999,-999.0,-999.0,82,0.08,,,0.58,WSDL version 420,2013-05-18 14:47:00,
2013-05-18 10:49:00,67.4,61.8,29.00,NE,45,0.0,0.0,82,0.08,,,0.58,WSDL version 420,2013-05-18 14:49:00,
2013-05-18 10:53:00,67.5,61.9,29.00,North,-999,-999.0,-999.0,82,0.04,,,0.58,WSDL version 420,2013-05-18 14:53:00,
2013-05-18 10:55:00,67.5,61.9,29.00,North,-999,-999.0,-999.0,82,0.04,,,0.58,WSDL version 420,2013-05-18 14:55:00,
2013-05-18 10:59:00,67.5,61.9,28.97,NE,45,0.0,0.0,82,0.04,,,0.58,WSDL version 420,2013-05-18 14:59:00,
2013-05-18 11:01:00,67.6,61.9,28.97,NE,45,0.0,0.0,82,0.04,,,0.58,WSDL version 420,2013-05-18 15:01:00,
2013-05-18 11:05:00,67.6,62.0,28.97,NE,45,0.0,0.0,82,0.04,,,0.58,WSDL version 420,2013-05-18 15:05:00,
2013-05-18 11:07:00,67.6,62.0,28.97,North,-999,-999.0,-999.0,82,0.09,,,0.63,WSDL version 420,2013-05-18 15:07:00,
2013-05-18 11:09:00,67.6,62.0,28.97,NE,45,0.0,0.0,82,0.09,,,0.63,WSDL version 420,2013-05-18 15:09:00,
2013-05-18 11:11:00,67.6,62.0,28.97,NE,45,0.0,0.0,82,0.09,,,0.63,WSDL version 420,2013-05-18 15:11:00,
2013-05-18 11:15:00,67.6,62.0,28.97,NE,45,0.0,0.0,82,0.09,,,0.63,WSDL version 420,2013-05-18 15:15:00,
2013-05-18 11:17:00,67.6,62.0,28.97,NE,45,0.0,0.0,82,0.09,,,0.63,WSDL version 420,2013-05-18 15:17:00,
2013-05-18 11:19:00,67.6,62.0,28.97,NE,45,0.0,0.0,82,0.09,,,0.63,WSDL version 420,2013-05-18 15:19:00,
2013-05-18 11:23:00,67.7,62.1,28.97,NE,45,0.0,0.0,82,0.09,,,0.63,WSDL version 420,2013-05-18 15:23:00,
2013-05-18 11:27:00,67.8,62.4,28.97,NE,45,0.0,0.0,83,0.09,,,0.63,WSDL version 420,2013-05-18 15:27:00,
2013-05-18 11:31:00,67.8,62.6,28.97,NE,45,0.0,0.0,83,0.05,,,0.63,WSDL version 420,2013-05-18 15:31:00,
2013-05-18 11:35:00,67.8,62.6,28.97,North,-999,-999.0,-999.0,83,0.05,,,0.63,WSDL version 420,2013-05-18 15:35:00,
2013-05-18 11:37:00,67.8,62.6,28.97,NE,45,0.0,0.0,83,0.05,,,0.63,WSDL version 420,2013-05-18 15:37:00,
2013-05-18 11:39:00,67.8,62.6,28.97,NE,45,0.0,0.0,83,0.05,,,0.63,WSDL version 420,2013-05-18 15:39:00,
2013-05-18 11:41:00,67.8,62.6,28.97,North,0,0.0,0.0,83,0.05,,,0.63,WSDL version 420,2013-05-18 15:41:00,
2013-05-18 11:45:00,67.9,62.6,28.97,NE,45,0.0,0.0,83,0.05,,,0.63,WSDL version 420,2013-05-18 15:45:00,
2013-05-18 11:49:00,68.0,62.8,28.97,SE,135,0.0,0.0,83,0.05,,,0.63,WSDL version 420,2013-05-18 15:49:00,
2013-05-18 11:51:00,68.0,62.8,28.97,SE,135,0.0,0.0,83,0.05,,,0.63,WSDL version 420,2013-05-18 15:51:00,
2013-05-18 11:55:00,68.0,62.8,28.97,SE,135,0.0,0.0,83,0.05,,,0.63,WSDL version 420,2013-05-18 15:55:00,
2013-05-18 11:57:00,68.0,62.8,28.97,SE,135,0.0,0.0,83,0.05,,,0.63,WSDL version 420,2013-05-18 15:57:00,
2013-05-18 12:01:00,68.1,62.9,28.97,SE,135,0.0,0.0,83,0.05,,,0.63,WSDL version 420,2013-05-18 16:01:00,
2013-05-18 12:03:00,68.2,62.9,28.97,SE,135,0.0,0.0,83,0.05,,,0.63,WSDL version 420,2013-05-18 16:03:00,
2013-05-18 12:05:00,68.2,63.0,28.97,SE,135,0.0,0.0,84,0.05,,,0.63,WSDL version 420,2013-05-18 16:05:00,
2013-05-18 12:07:00,68.2,63.2,28.97,ENE,75,0.0,0.0,84,0.00,,,0.63,WSDL version 420,2013-05-18 16:07:00,
2013-05-18 12:11:00,68.2,63.3,28.97,NE,45,0.0,0.0,84,0.00,,,0.63,WSDL version 420,2013-05-18 16:11:00,
2013-05-18 12:13:00,68.3,63.4,28.97,NE,45,0.0,0.0,84,0.00,,,0.63,WSDL version 420,2013-05-18 16:13:00,
2013-05-18 12:15:00,68.3,63.5,28.97,North,-999,-999.0,-999.0,84,0.00,,,0.63,WSDL version 420,2013-05-18 16:15:00,
2013-05-18 12:17:00,68.4,63.5,28.97,NE,45,0.0,0.0,84,0.00,,,0.63,WSDL version 420,2013-05-18 16:17:00,
2013-05-18 12:21:00,68.4,63.5,28.97,East,90,0.0,0.0,84,0.00,,,0.63,WSDL version 420,2013-05-18 16:21:00,
2013-05-18 12:23:00,68.4,63.5,28.97,East,90,0.0,0.0,84,0.00,,,0.63,WSDL version 420,2013-05-18 16:23:00,
2013-05-18 12:27:00,68.5,63.6,28.97,East,90,0.0,0.0,84,0.00,,,0.63,WSDL version 420,2013-05-18 16:27:00,
2013-05-18 12:29:00,68.5,63.7,28.97,SE,135,0.0,0.0,85,0.00,,,0.63,WSDL version 420,2013-05-18 16:29:00,
2013-05-18 12:33:00,68.5,64.0,28.97,SSW,203,0.0,0.0,86,0.00,,,0.63,WSDL version 420,2013-05-18 16:33:00,
2013-05-18 12:35:00,68.5,64.0,28.97,SSW,203,0.0,0.0,86,0.00,,,0.63,WSDL version 420,2013-05-18 16:35:00,
2013-05-18 12:41:00,68.5,64.0,28.97,South,180,0.0,0.0,86,0.00,,,0.63,WSDL version 420,2013-05-18 16:41:00,
2013-05-18 12:43:00,68.6,64.1,28.94,South,180,0.0,0.0,86,0.00,,,0.63,WSDL version 420,2013-05-18 16:43:00,
2013-05-18 12:47:00,68.7,64.2,28.94,South,180,0.0,0.0,86,0.00,,,0.63,WSDL version 420,2013-05-18 16:47:00,
2013-05-18 12:49:00,68.7,64.2,28.94,South,180,0.0,0.0,86,0.00,,,0.63,WSDL version 420,2013-05-18 16:49:00,
2013-05-18 12:51:00,68.7,64.2,28.94,North,-999,-999.0,-999.0,86,0.00,,,0.63,WSDL version 420,2013-05-18 16:51:00,
2013-05-18 12:57:00,68.9,64.4,28.94,South,180,0.0,0.0,86,0.00,,,0.63,WSDL version 420,2013-05-18 16:57:00,
2013-05-18 12:59:00,68.9,64.4,28.94,South,180,0.0,0.0,86,0.00,,,0.63,WSDL version 420,2013-05-18 16:59:00,
2013-05-18 13:03:00,68.9,64.4,28.94,South,180,0.0,0.0,86,0.00,,,0.63,WSDL version 420,2013-05-18 17:03:00,
2013-05-18 13:05:00,69.0,64.5,28.94,South,180,0.0,0.0,86,0.00,,,0.63,WSDL version 420,2013-05-18 17:05:00,
2013-05-18 13:07:00,69.1,64.5,28.94,South,180,0.0,0.0,86,0.00,,,0.63,WSDL version 420,2013-05-18 17:07:00,
2013-05-18 13:11:00,69.1,64.8,28.94,South,180,0.0,0.0,87,0.00,,,0.63,WSDL version 420,2013-05-18 17:11:00,
2013-05-18 13:15:00,69.1,64.9,28.94,NW,315,0.0,0.0,87,0.00,,,0.63,WSDL version 420,2013-05-18 17:15:00,
2013-05-18 13:17:00,69.1,64.9,28.94,NW,315,0.0,0.0,87,0.00,,,0.63,WSDL version 420,2013-05-18 17:17:00,
2013-05-18 13:19:00,69.1,65.0,28.94,NW,315,0.0,0.0,87,0.00,,,0.63,WSDL version 420,2013-05-18 17:19:00,
2013-05-18 13:21:00,69.2,65.1,28.94,North,-999,-999.0,-999.0,87,0.00,,,0.63,WSDL version 420,2013-05-18 17:21:00,
2013-05-18 13:23:00,69.3,65.1,28.94,NW,315,0.0,0.0,87,0.00,,,0.63,WSDL version 420,2013-05-18 17:23:00,
2013-05-18 13:27:00,69.4,65.2,28.94,NW,315,0.0,0.0,87,0.00,,,0.63,WSDL version 420,2013-05-18 17:27:00,
2013-05-18 13:29:00,69.4,65.3,28.94,NW,315,0.0,0.0,87,0.00,,,0.63,WSDL version 420,2013-05-18 17:29:00,
2013-05-18 13:33:00,69.5,65.3,28.94,NW,315,0.0,0.0,87,0.00,,,0.63,WSDL version 420,2013-05-18 17:33:00,
2013-05-18 13:35:00,69.5,65.4,28.94,North,-999,-999.0,-999.0,87,0.00,,,0.63,WSDL version 420,2013-05-18 17:35:00,
2013-05-18 13:37:00,69.6,65.5,28.94,NW,315,0.0,0.0,87,0.00,,,0.63,WSDL version 420,2013-05-18 17:37:00,
2013-05-18 13:41:00,69.6,65.4,28.94,NW,315,0.0,0.0,87,0.00,,,0.63,WSDL version 420,2013-05-18 17:41:00,
2013-05-18 13:43:00,69.6,65.4,28.94,North,0,0.0,0.0,87,0.00,,,0.63,WSDL version 420,2013-05-18 17:43:00,
2013-05-18 13:45:00,69.6,65.5,28.94,NW,315,0.0,0.0,87,0.00,,,0.63,WSDL version 420,2013-05-18 17:45:00,
2013-05-18 13:47:00,69.6,65.5,28.94,NW,315,0.0,0.0,87,0.00,,,0.63,WSDL version 420,2013-05-18 17:47:00,
2013-05-18 13:49:00,69.7,65.5,28.94,North,-999,-999.0,-999.0,87,0.00,,,0.63,WSDL version 420,2013-05-18 17:49:00,
2013-05-18 13:51:00,69.7,65.6,28.94,North,-999,-999.0,-999.0,87,0.00,,,0.63,WSDL version 420,2013-05-18 17:51:00,
2013-05-18 13:55:00,69.8,65.6,28.94,SSE,158,0.0,0.0,87,0.00,,,0.63,WSDL version 420,2013-05-18 17:55:00,
2013-05-18 13:57:00,69.8,65.7,28.94,SSE,158,0.0,0.0,87,0.00,,,0.63,WSDL version 420,2013-05-18 17:57:00,
2013-05-18 13:59:00,69.9,65.8,28.94,North,-999,-999.0,-999.0,87,0.00,,,0.63,WSDL version 420,2013-05-18 17:59:00,
2013-05-18 14:03:00,69.9,65.7,28.94,ESE,113,0.0,0.0,87,0.00,,,0.63,WSDL version 420,2013-05-18 18:03:00,
2013-05-18 14:05:00,69.9,65.7,28.94,North,-999,-999.0,-999.0,87,0.00,,,0.63,WSDL version 420,2013-05-18 18:05:00,
2013-05-18 14:07:00,69.9,65.8,28.94,North,-999,-999.0,-999.0,87,0.00,,,0.63,WSDL version 420,2013-05-18 18:07:00,
2013-05-18 14:09:00,70.0,65.8,28.94,SSE,158,0.0,0.0,87,0.00,,,0.63,WSDL version 420,2013-05-18 18:09:00,
2013-05-18 14:13:00,70.1,65.9,28.94,North,-999,-999.0,-999.0,87,0.00,,,0.63,WSDL version 420,2013-05-18 18:13:00,
2013-05-18 14:15:00,70.2,66.0,28.94,SSE,158,0.0,0.0,87,0.00,,,0.63,WSDL version 420,2013-05-18 18:15:00,
2013-05-18 14:17:00,70.3,66.1,28.94,SSE,158,0.0,0.0,87,0.00,,,0.63,WSDL version 420,2013-05-18 18:17:00,
2013-05-18 14:21:00,70.3,66.2,28.94,ENE,68,0.0,0.0,87,0.00,,,0.63,WSDL version 420,2013-05-18 18:21:00,
2013-05-18 14:23:00,70.4,66.2,28.94,North,0,0.0,0.0,87,0.00,,,0.63,WSDL version 420,2013-05-18 18:23:00,
2013-05-18 14:25:00,70.4,66.3,28.94,North,360,0.0,0.0,87,0.00,,,0.63,WSDL version 420,2013-05-18 18:25:00,
2013-05-18 14:27:00,70.5,66.4,28.94,North,360,0.0,0.0,87,0.00,,,0.63,WSDL version 420,2013-05-18 18:27:00,
2013-05-18 14:29:00,70.6,66.5,28.94,North,-999,-999.0,-999.0,87,0.00,,,0.63,WSDL version 420,2013-05-18 18:29:00,
2013-05-18 14:31:00,70.8,66.6,28.94,North,-999,-999.0,-999.0,87,0.00,,,0.63,WSDL version 420,2013-05-18 18:31:00,
2013-05-18 14:33:00,70.8,66.6,28.94,North,-999,-999.0,-999.0,87,0.00,,,0.63,WSDL version 420,2013-05-18 18:33:00,
2013-05-18 14:37:00,71.0,66.9,28.94,North,360,0.0,0.0,87,0.00,,,0.63,WSDL version 420,2013-05-18 18:37:00,
2013-05-18 14:41:00,71.1,67.1,28.94,SE,124,0.0,0.0,87,0.00,,,0.63,WSDL version 420,2013-05-18 18:41:00,
2013-05-18 14:45:00,71.1,66.9,28.94,West,270,0.0,0.0,87,0.00,,,0.63,WSDL version 420,2013-05-18 18:45:00,
2013-05-18 14:47:00,71.1,66.9,28.94,West,270,0.0,0.0,87,0.00,,,0.63,WSDL version 420,2013-05-18 18:47:00,
2013-05-18 14:49:00,71.1,66.9,28.94,West,270,0.0,0.0,87,0.00,,,0.63,WSDL version 420,2013-05-18 18:49:00,
2013-05-18 14:53:00,71.1,66.9,28.94,West,270,0.0,0.0,87,0.00,,,0.63,WSDL version 420,2013-05-18 18:53:00,
2013-05-18 14:55:00,71.1,66.9,28.94,West,270,0.0,0.0,87,0.00,,,0.63,WSDL version 420,2013-05-18 18:55:00,
2013-05-18 14:57:00,71.1,66.9,28.91,West,259,0.0,0.0,87,0.00,,,0.63,WSDL version 420,2013-05-18 18:57:00,
2013-05-18 15:01:00,71.0,66.8,28.91,South,180,0.0,0.0,87,0.00,,,0.63,WSDL version 420,2013-05-18 19:01:00,
2013-05-18 15:05:00,70.9,66.7,28.91,South,180,0.0,0.0,87,0.00,,,0.63,WSDL version 420,2013-05-18 19:05:00,
2013-05-18 15:09:00,71.0,66.5,28.91,South,180,0.0,0.0,86,0.00,,,0.63,WSDL version 420,2013-05-18 19:09:00,
2013-05-18 15:11:00,71.1,66.6,28.91,South,180,0.0,0.0,87,0.00,,,0.63,WSDL version 420,2013-05-18 19:11:00,
2013-05-18 15:15:00,71.3,67.1,28.94,SE,135,0.0,0.0,87,0.00,,,0.63,WSDL version 420,2013-05-18 19:15:00,
2013-05-18 15:17:00,71.4,67.2,28.94,North,360,0.0,0.0,87,0.00,,,0.63,WSDL version 420,2013-05-18 19:17:00,
2013-05-18 15:19:00,71.5,67.3,28.94,North,-999,-999.0,-999.0,87,0.00,,,0.63,WSDL version 420,2013-05-18 19:19:00,
2013-05-18 15:21:00,71.6,67.5,28.94,SE,135,0.0,0.0,87,0.00,,,0.63,WSDL version 420,2013-05-18 19:21:00,
2013-05-18 15:23:00,71.7,67.5,28.94,East,90,0.0,0.0,87,0.00,,,0.63,WSDL version 420,2013-05-18 19:23:00,
2013-05-18 15:27:00,71.9,67.7,28.91,North,-999,-999.0,-999.0,87,0.00,,,0.63,WSDL version 420,2013-05-18 19:27:00,
2013-05-18 15:33:00,71.9,67.6,28.91,South,180,0.0,0.0,86,0.00,,,0.63,WSDL version 420,2013-05-18 19:33:00,
2013-05-18 15:35:00,71.8,67.5,28.91,South,180,0.0,0.0,86,0.00,,,0.63,WSDL version 420,2013-05-18 19:35:00,
2013-05-18 15:37:00,71.7,67.2,28.91,South,180,0.0,0.0,86,0.00,,,0.63,WSDL version 420,2013-05-18 19:37:00,
2013-05-18 15:39:00,71.7,67.0,28.91,South,180,0.0,0.0,85,0.00,,,0.63,WSDL version 420,2013-05-18 19:39:00,
2013-05-18 15:41:00,71.6,66.9,28.91,South,180,0.0,0.0,86,0.00,,,0.63,WSDL version 420,2013-05-18 19:41:00,
2013-05-18 15:43:00,71.5,66.8,28.91,South,180,0.0,0.0,84,0.00,,,0.63,WSDL version 420,2013-05-18 19:43:00,
2013-05-18 15:45:00,71.4,66.6,28.91,South,180,0.0,0.0,84,0.00,,,0.63,WSDL version 420,2013-05-18 19:45:00,
2013-05-18 15:51:00,71.3,66.4,28.91,East,90,0.0,0.0,84,0.00,,,0.63,WSDL version 420,2013-05-18 19:51:00,
2013-05-18 15:55:00,71.2,66.2,28.91,East,90,0.0,0.0,83,0.00,,,0.63,WSDL version 420,2013-05-18 19:55:00,
2013-05-18 15:57:00,71.2,66.1,28.91,East,90,0.0,0.0,83,0.00,,,0.63,WSDL version 420,2013-05-18 19:57:00,
2013-05-18 15:59:00,71.1,65.8,28.91,East,90,0.0,0.0,83,0.00,,,0.63,WSDL version 420,2013-05-18 19:59:00,
2013-05-18 16:03:00,71.1,65.8,28.91,East,90,0.0,0.0,83,0.00,,,0.63,WSDL version 420,2013-05-18 20:03:00,
2013-05-18 16:07:00,71.1,65.8,28.91,East,90,0.0,0.0,83,0.00,,,0.63,WSDL version 420,2013-05-18 20:07:00,
2013-05-18 16:11:00,71.1,65.8,28.91,East,90,0.0,0.0,83,0.00,,,0.63,WSDL version 420,2013-05-18 20:11:00,
2013-05-18 16:13:00,71.1,65.8,28.91,East,90,0.0,0.0,83,0.00,,,0.63,WSDL version 420,2013-05-18 20:13:00,
2013-05-18 16:15:00,71.1,65.8,28.91,East,90,0.0,0.0,83,0.00,,,0.63,WSDL version 420,2013-05-18 20:15:00,
2013-05-18 16:17:00,71.0,66.0,28.91,East,90,0.0,0.0,84,0.00,,,0.63,WSDL version 420,2013-05-18 20:17:00,
2013-05-18 16:19:00,71.0,66.0,28.91,North,0,0.0,0.0,84,0.00,,,0.63,WSDL version 420,2013-05-18 20:19:00,
2013-05-18 16:23:00,70.9,66.0,28.91,East,90,0.0,0.0,84,0.00,,,0.63,WSDL version 420,2013-05-18 20:23:00,
2013-05-18 16:25:00,70.9,66.0,28.91,East,90,0.0,0.0,84,0.00,,,0.63,WSDL version 420,2013-05-18 20:25:00,
2013-05-18 16:31:00,71.1,66.1,28.91,East,90,0.0,0.0,84,0.00,,,0.63,WSDL version 420,2013-05-18 20:31:00,
2013-05-18 16:33:00,71.1,66.1,28.91,East,90,0.0,0.0,84,0.00,,,0.63,WSDL version 420,2013-05-18 20:33:00,
2013-05-18 16:35:00,71.1,66.1,28.91,East,90,0.0,0.0,84,0.00,,,0.63,WSDL version 420,2013-05-18 20:35:00,
2013-05-18 16:37:00,71.1,66.1,28.91,East,90,0.0,0.0,84,0.00,,,0.63,WSDL version 420,2013-05-18 20:37:00,
2013-05-18 16:39:00,71.1,66.1,28.91,East,90,0.0,0.0,84,0.00,,,0.63,WSDL version 420,2013-05-18 20:39:00,
2013-05-18 16:41:00,71.1,66.1,28.91,East,90,0.0,0.0,84,0.00,,,0.63,WSDL version 420,2013-05-18 20:41:00,
2013-05-18 16:43:00,71.1,66.1,28.91,East,90,0.0,0.0,84,0.00,,,0.63,WSDL version 420,2013-05-18 20:43:00,
2013-05-18 16:45:00,71.1,66.1,28.91,East,90,0.0,0.0,84,0.00,,,0.63,WSDL version 420,2013-05-18 20:45:00,
2013-05-18 16:47:00,71.1,66.1,28.91,East,90,0.0,0.0,84,0.00,,,0.63,WSDL version 420,2013-05-18 20:47:00,
2013-05-18 16:49:00,71.1,66.1,28.91,East,90,0.0,0.0,84,0.00,,,0.63,WSDL version 420,2013-05-18 20:49:00,
2013-05-18 16:53:00,71.1,66.1,28.91,East,90,0.0,0.0,84,0.00,,,0.63,WSDL version 420,2013-05-18 20:53:00,
2013-05-18 16:55:00,71.1,66.1,28.91,North,-999,-999.0,-999.0,84,0.00,,,0.63,WSDL version 420,2013-05-18 20:55:00,
2013-05-18 17:04:00,71.2,66.5,28.91,East,90,0.0,0.0,86,0.00,,,0.63,WSDL version 420,2013-05-18 21:04:00,
2013-05-18 17:06:00,71.2,66.6,28.91,East,90,0.0,0.0,86,0.00,,,0.63,WSDL version 420,2013-05-18 21:06:00,
2013-05-18 17:12:00,71.4,66.9,28.91,East,90,0.0,0.0,86,0.00,,,0.63,WSDL version 420,2013-05-18 21:12:00,
2013-05-18 17:14:00,71.4,66.9,28.91,East,90,0.0,0.0,86,0.00,,,0.63,WSDL version 420,2013-05-18 21:14:00,
2013-05-18 17:16:00,71.4,66.9,28.91,North,-999,-999.0,-999.0,86,0.00,,,0.63,WSDL version 420,2013-05-18 21:16:00,
2013-05-18 17:20:00,71.4,66.9,28.91,North,0,0.0,0.0,86,0.00,,,0.63,WSDL version 420,2013-05-18 21:20:00,
2013-05-18 17:22:00,71.4,66.9,28.91,North,-999,-999.0,-999.0,86,0.00,,,0.63,WSDL version 420,2013-05-18 21:22:00,
2013-05-18 17:24:00,71.4,66.9,28.91,East,90,0.0,0.0,86,0.00,,,0.63,WSDL version 420,2013-05-18 21:24:00,
2013-05-18 17:28:00,71.4,66.9,28.91,North,0,0.0,0.0,86,0.00,,,0.63,WSDL version 420,2013-05-18 21:28:00,
2013-05-18 17:30:00,71.4,66.9,28.91,SE,135,0.0,0.0,86,0.00,,,0.63,WSDL version 420,2013-05-18 21:30:00,
2013-05-18 17:34:00,71.4,66.9,28.91,SE,135,0.0,0.0,86,0.00,,,0.63,WSDL version 420,2013-05-18 21:34:00,
2013-05-18 17:36:00,71.4,66.8,28.91,North,-999,-999.0,-999.0,84,0.00,,,0.63,WSDL version 420,2013-05-18 21:36:00,
2013-05-18 17:38:00,71.4,66.7,28.91,SW,225,0.0,0.0,84,0.00,,,0.63,WSDL version 420,2013-05-18 21:38:00,
2013-05-18 17:42:00,71.4,66.5,28.91,East,90,0.0,0.0,84,0.00,,,0.63,WSDL version 420,2013-05-18 21:42:00,
2013-05-18 17:44:00,71.4,66.5,28.91,North,-999,-999.0,-999.0,84,0.00,,,0.63,WSDL version 420,2013-05-18 21:44:00,
2013-05-18 17:48:00,71.2,66.3,28.91,North,-999,-999.0,-999.0,84,0.00,,,0.63,WSDL version 420,2013-05-18 21:48:00,
2013-05-18 17:50:00,71.2,66.3,28.91,North,-999,-999.0,-999.0,84,0.00,,,0.63,WSDL version 420,2013-05-18 21:50:00,
2013-05-18 17:52:00,71.2,66.2,28.91,SW,225,0.0,0.0,83,0.00,,,0.63,WSDL version 420,2013-05-18 21:52:00,
2013-05-18 17:56:00,71.2,65.9,28.91,WSW,248,0.0,0.0,83,0.00,,,0.63,WSDL version 420,2013-05-18 21:56:00,
2013-05-18 17:58:00,71.2,65.9,28.91,North,0,0.0,0.0,83,0.00,,,0.63,WSDL version 420,2013-05-18 21:58:00,
2013-05-18 18:00:00,71.2,65.9,28.91,North,-999,-999.0,-999.0,83,0.00,,,0.63,WSDL version 420,2013-05-18 22:00:00,
2013-05-18 18:04:00,71.1,65.8,28.91,West,270,0.0,0.0,83,0.00,,,0.63,WSDL version 420,2013-05-18 22:04:00,
2013-05-18 18:06:00,71.1,65.8,28.91,North,-999,-999.0,-999.0,83,0.00,,,0.63,WSDL version 420,2013-05-18 22:06:00,
2013-05-18 18:08:00,71.1,65.8,28.91,North,-999,-999.0,-999.0,83,0.00,,,0.63,WSDL version 420,2013-05-18 22:08:00,
2013-05-18 18:10:00,71.1,65.8,28.91,West,270,0.0,0.0,83,0.00,,,0.63,WSDL version 420,2013-05-18 22:10:00,
2013-05-18 18:12:00,71.1,65.8,28.91,North,-999,-999.0,-999.0,83,0.00,,,0.63,WSDL version 420,2013-05-18 22:12:00,
2013-05-18 18:16:00,71.1,65.8,28.91,North,-999,-999.0,-999.0,83,0.00,,,0.63,WSDL version 420,2013-05-18 22:16:00,
2013-05-18 18:18:00,71.0,65.7,28.91,North,-999,-999.0,-999.0,83,0.00,,,0.63,WSDL version 420,2013-05-18 22:18:00,
2013-05-18 18:22:00,70.9,65.6,28.91,West,270,0.0,0.0,83,0.00,,,0.63,WSDL version 420,2013-05-18 22:22:00,
2013-05-18 18:24:00,70.9,65.6,28.91,North,-999,-999.0,-999.0,83,0.00,,,0.63,WSDL version 420,2013-05-18 22:24:00,
2013-05-18 18:28:00,70.9,65.6,28.91,West,270,0.0,0.0,83,0.00,,,0.63,WSDL version 420,2013-05-18 22:28:00,
2013-05-18 18:30:00,70.9,65.6,28.91,West,270,0.0,0.0,83,0.00,,,0.63,WSDL version 420,2013-05-18 22:30:00,
2013-05-18 18:34:00,70.9,65.6,28.91,West,270,0.0,0.0,83,0.00,,,0.63,WSDL version 420,2013-05-18 22:34:00,
2013-05-18 18:36:00,70.8,65.5,28.91,West,270,0.0,0.0,83,0.00,,,0.63,WSDL version 420,2013-05-18 22:36:00,
2013-05-18 18:38:00,70.8,65.5,28.91,North,-999,-999.0,-999.0,83,0.00,,,0.63,WSDL version 420,2013-05-18 22:38:00,
2013-05-18 18:42:00,70.7,65.4,28.91,West,270,0.0,0.0,83,0.00,,,0.63,WSDL version 420,2013-05-18 22:42:00,
2013-05-18 18:44:00,70.8,65.5,28.91,North,0,0.0,0.0,83,0.00,,,0.63,WSDL version 420,2013-05-18 22:44:00,
2013-05-18 18:46:00,70.9,65.5,28.91,West,270,0.0,0.0,83,0.00,,,0.63,WSDL version 420,2013-05-18 22:46:00,
2013-05-18 18:50:00,70.9,65.6,28.91,West,270,0.0,0.0,83,0.00,,,0.63,WSDL version 420,2013-05-18 22:50:00,
2013-05-18 18:52:00,70.9,65.6,28.91,West,270,0.0,0.0,83,0.00,,,0.63,WSDL version 420,2013-05-18 22:52:00,
2013-05-18 18:54:00,70.9,65.6,28.91,West,270,0.0,0.0,83,0.00,,,0.63,WSDL version 420,2013-05-18 22:54:00,
2013-05-18 18:58:00,70.9,65.6,28.91,North,-999,-999.0,-999.0,83,0.00,,,0.63,WSDL version 420,2013-05-18 22:58:00,
2013-05-18 19:00:00,70.9,65.6,28.91,West,270,0.0,0.0,83,0.00,,,0.63,WSDL version 420,2013-05-18 23:00:00,
2013-05-18 19:04:00,70.9,65.6,28.91,West,270,0.0,0.0,83,0.00,,,0.63,WSDL version 420,2013-05-18 23:04:00,
2013-05-18 19:06:00,70.9,65.5,28.91,North,-999,-999.0,-999.0,83,0.00,,,0.63,WSDL version 420,2013-05-18 23:06:00,
2013-05-18 19:10:00,70.7,65.4,28.91,North,-999,-999.0,-999.0,83,0.00,,,0.63,WSDL version 420,2013-05-18 23:10:00,
2013-05-18 19:12:00,70.7,65.4,28.91,North,-999,-999.0,-999.0,83,0.00,,,0.63,WSDL version 420,2013-05-18 23:12:00,
2013-05-18 19:14:00,70.7,65.4,28.91,North,-999,-999.0,-999.0,83,0.00,,,0.63,WSDL version 420,2013-05-18 23:14:00,
2013-05-18 19:16:00,70.7,65.4,28.91,North,-999,-999.0,-999.0,83,0.00,,,0.63,WSDL version 420,2013-05-18 23:16:00,
2013-05-18 19:20:00,70.7,65.4,28.91,West,270,0.0,0.0,83,0.00,,,0.63,WSDL version 420,2013-05-18 23:20:00,
2013-05-18 19:22:00,70.7,65.4,28.91,North,0,0.0,0.0,83,0.00,,,0.63,WSDL version 420,2013-05-18 23:22:00,
2013-05-18 19:24:00,70.7,65.4,28.91,North,-999,-999.0,-999.0,83,0.00,,,0.63,WSDL version 420,2013-05-18 23:24:00,
2013-05-18 19:28:00,70.7,65.4,28.91,North,-999,-999.0,-999.0,83,0.00,,,0.63,WSDL version 420,2013-05-18 23:28:00,
2013-05-18 19:30:00,70.7,65.4,28.91,West,270,0.0,0.0,83,0.00,,,0.63,WSDL version 420,2013-05-18 23:30:00,
2013-05-18 19:32:00,70.7,65.4,28.91,North,0,0.0,0.0,83,0.00,,,0.63,WSDL version 420,2013-05-18 23:32:00,
2013-05-18 19:36:00,70.7,65.4,28.91,North,-999,-999.0,-999.0,83,0.00,,,0.63,WSDL version 420,2013-05-18 23:36:00,
2013-05-18 19:40:00,70.6,65.3,28.91,North,-999,-999.0,-999.0,83,0.00,,,0.63,WSDL version 420,2013-05-18 23:40:00,
2013-05-18 19:42:00,70.5,65.2,28.91,West,270,0.0,0.0,83,0.00,,,0.63,WSDL version 420,2013-05-18 23:42:00,
2013-05-18 19:44:00,70.5,65.2,28.91,West,270,0.0,0.0,83,0.00,,,0.63,WSDL version 420,2013-05-18 23:44:00,
2013-05-18 19:46:00,70.5,65.4,28.91,North,0,0.0,0.0,84,0.00,,,0.63,WSDL version 420,2013-05-18 23:46:00,
2013-05-18 19:50:00,70.5,65.6,28.91,North,-999,-999.0,-999.0,84,0.00,,,0.63,WSDL version 420,2013-05-18 23:50:00,
2013-05-18 19:54:00,70.5,65.6,28.91,North,-999,-999.0,-999.0,84,0.00,,,0.63,WSDL version 420,2013-05-18 23:54:00,
2013-05-18 19:58:00,70.5,65.6,28.91,North,-999,-999.0,-999.0,84,0.00,,,0.63,WSDL version 420,2013-05-18 23:58:00,
2013-05-18 20:00:00,70.5,65.6,28.91,North,-999,-999.0,-999.0,84,0.00,,,0.63,WSDL version 420,2013-05-19 00:00:00,
2013-05-18 20:04:00,70.5,65.6,28.91,North,-999,-999.0,-999.0,84,0.00,,,0.63,WSDL version 420,2013-05-19 00:04:00,
2013-05-18 20:06:00,70.5,65.6,28.91,SSW,203,0.0,0.0,84,0.04,,,0.67,WSDL version 420,2013-05-19 00:06:00,
2013-05-18 20:10:00,70.5,65.7,28.91,North,-999,-999.0,-999.0,86,0.08,,,0.71,WSDL version 420,2013-05-19 00:10:00,
2013-05-18 20:12:00,70.5,65.9,28.91,North,-999,-999.0,-999.0,86,0.08,,,0.71,WSDL version 420,2013-05-19 00:12:00,
2013-05-18 20:16:00,70.4,65.9,28.91,North,-999,-999.0,-999.0,86,0.08,,,0.71,WSDL version 420,2013-05-19 00:16:00,
2013-05-18 20:22:00,70.3,65.8,28.91,NW,315,0.0,0.0,86,0.08,,,0.71,WSDL version 420,2013-05-19 00:22:00,
2013-05-18 20:26:00,70.3,65.8,28.91,North,-999,-999.0,-999.0,86,0.08,,,0.71,WSDL version 420,2013-05-19 00:26:00,
2013-05-18 20:28:00,70.3,65.8,28.91,North,-999,-999.0,-999.0,86,0.08,,,0.71,WSDL version 420,2013-05-19 00:28:00,
2013-05-18 20:30:00,70.2,65.7,28.91,North,-999,-999.0,-999.0,86,0.08,,,0.71,WSDL version 420,2013-05-19 00:30:00,
2013-05-18 20:34:00,70.2,65.6,28.91,East,90,0.0,0.0,86,0.08,,,0.71,WSDL version 420,2013-05-19 00:34:00,
2013-05-18 20:38:00,70.2,65.6,28.91,ESE,113,0.0,0.0,86,0.08,,,0.71,WSDL version 420,2013-05-19 00:38:00,
2013-05-18 20:42:00,70.1,65.6,28.91,North,-999,-999.0,-999.0,86,0.08,,,0.71,WSDL version 420,2013-05-19 00:42:00,
2013-05-18 20:44:00,70.1,65.5,28.91,NE,45,0.0,0.0,86,0.08,,,0.71,WSDL version 420,2013-05-19 00:44:00,
2013-05-18 20:46:00,70.0,65.5,28.91,NE,45,0.0,0.0,86,0.08,,,0.71,WSDL version 420,2013-05-19 00:46:00,
2013-05-18 20:48:00,70.0,65.5,28.91,North,-999,-999.0,-999.0,86,0.08,,,0.71,WSDL version 420,2013-05-19 00:48:00,
2013-05-18 20:52:00,69.9,65.4,28.91,NE,45,0.0,0.0,86,0.08,,,0.71,WSDL version 420,2013-05-19 00:52:00,
2013-05-18 20:54:00,69.9,65.3,28.91,NE,45,0.0,0.0,86,0.08,,,0.71,WSDL version 420,2013-05-19 00:54:00,
2013-05-18 20:58:00,69.8,65.3,28.91,North,0,0.0,0.0,86,0.08,,,0.71,WSDL version 420,2013-05-19 00:58:00,
2013-05-18 21:00:00,69.8,65.3,28.91,NE,45,0.0,0.0,86,0.08,,,0.71,WSDL version 420,2013-05-19 01:00:00,
2013-05-18 21:02:00,69.8,65.3,28.91,NE,45,0.0,0.0,86,0.08,,,0.71,WSDL version 420,2013-05-19 01:02:00,
2013-05-18 21:06:00,69.7,65.4,28.91,North,-999,-999.0,-999.0,87,0.04,,,0.71,WSDL version 420,2013-05-19 01:06:00,
2013-05-18 21:10:00,69.6,65.5,28.91,North,-999,-999.0,-999.0,87,0.04,,,0.71,WSDL version 420,2013-05-19 01:10:00,
2013-05-18 21:12:00,69.6,65.5,28.94,East,79,0.0,0.0,87,0.00,,,0.71,WSDL version 420,2013-05-19 01:12:00,
2013-05-18 21:14:00,69.6,65.5,28.94,SE,135,0.0,0.0,87,0.00,,,0.71,WSDL version 420,2013-05-19 01:14:00,
2013-05-18 21:16:00,69.7,65.5,28.94,North,-999,-999.0,-999.0,87,0.00,,,0.71,WSDL version 420,2013-05-19 01:16:00,
2013-05-18 21:18:00,69.7,65.6,28.94,North,-999,-999.0,-999.0,87,0.00,,,0.71,WSDL version 420,2013-05-19 01:18:00,
2013-05-18 21:20:00,69.8,65.6,28.94,SE,135,0.0,0.0,87,0.00,,,0.71,WSDL version 420,2013-05-19 01:20:00,
2013-05-18 21:22:00,69.7,65.7,28.94,North,0,0.0,0.0,88,0.00,,,0.71,WSDL version 420,2013-05-19 01:22:00,
2013-05-18 21:24:00,69.6,65.8,28.94,SE,135,0.0,0.0,88,0.00,,,0.71,WSDL version 420,2013-05-19 01:24:00,
2013-05-18 21:30:00,69.6,65.8,28.91,SE,135,0.0,0.0,88,0.00,,,0.71,WSDL version 420,2013-05-19 01:30:00,
2013-05-18 21:32:00,69.6,65.8,28.91,North,-999,-999.0,-999.0,88,0.00,,,0.71,WSDL version 420,2013-05-19 01:32:00,
2013-05-18 21:34:00,69.6,65.8,28.91,SE,135,0.0,0.0,88,0.00,,,0.71,WSDL version 420,2013-05-19 01:34:00,
2013-05-18 21:38:00,69.6,65.8,28.91,SE,135,0.0,0.0,88,0.00,,,0.71,WSDL version 420,2013-05-19 01:38:00,
2013-05-18 21:40:00,69.6,65.8,28.91,North,-999,-999.0,-999.0,88,0.00,,,0.71,WSDL version 420,2013-05-19 01:40:00,
2013-05-18 21:42:00,69.6,65.8,28.91,SE,135,0.0,0.0,88,0.00,,,0.71,WSDL version 420,2013-05-19 01:42:00,
2013-05-18 21:44:00,69.6,65.8,28.91,SE,135,0.0,0.0,88,0.00,,,0.71,WSDL version 420,2013-05-19 01:44:00,
2013-05-18 21:48:00,69.6,65.8,28.91,SE,135,0.0,0.0,88,0.00,,,0.71,WSDL version 420,2013-05-19 01:48:00,
2013-05-18 21:50:00,69.6,65.8,28.91,SE,135,0.0,0.0,88,0.00,,,0.71,WSDL version 420,2013-05-19 01:50:00,
2013-05-18 21:52:00,69.6,65.8,28.91,SE,135,0.0,0.0,88,0.00,,,0.71,WSDL version 420,2013-05-19 01:52:00,
2013-05-18 21:54:00,69.6,65.8,28.91,North,0,0.0,0.0,88,0.00,,,0.71,WSDL version 420,2013-05-19 01:54:00,
2013-05-18 21:56:00,69.6,65.8,28.91,SE,135,0.0,0.0,88,0.00,,,0.71,WSDL version 420,2013-05-19 01:56:00,
2013-05-18 21:58:00,69.6,65.8,28.94,SE,135,0.0,0.0,88,0.00,,,0.71,WSDL version 420,2013-05-19 01:58:00,
2013-05-18 22:02:00,69.4,65.7,28.94,NE,45,0.0,0.0,88,0.00,,,0.71,WSDL version 420,2013-05-19 02:02:00,
2013-05-18 22:04:00,69.4,65.7,28.94,NE,45,0.0,0.0,88,0.00,,,0.71,WSDL version 420,2013-05-19 02:04:00,
2013-05-18 22:06:00,69.4,65.7,28.94,NE,45,0.0,0.0,88,0.00,,,0.71,WSDL version 420,2013-05-19 02:06:00,
2013-05-18 22:08:00,69.4,65.7,28.94,North,0,0.0,0.0,88,0.00,,,0.71,WSDL version 420,2013-05-19 02:08:00,
2013-05-18 22:12:00,69.4,66.0,28.94,North,-999,-999.0,-999.0,89,0.00,,,0.71,WSDL version 420,2013-05-19 02:12:00,
2013-05-18 22:14:00,69.4,66.0,28.94,NE,45,0.0,0.0,89,0.00,,,0.71,WSDL version 420,2013-05-19 02:14:00,
2013-05-18 22:20:00,69.4,66.0,28.94,NE,45,0.0,0.0,89,0.00,,,0.71,WSDL version 420,2013-05-19 02:20:00,
2013-05-18 22:22:00,69.4,66.0,28.94,NE,45,0.0,0.0,89,0.00,,,0.71,WSDL version 420,2013-05-19 02:22:00,
2013-05-18 22:24:00,69.4,66.0,28.94,South,180,0.0,0.0,89,0.00,,,0.71,WSDL version 420,2013-05-19 02:24:00,
2013-05-18 22:26:00,69.4,66.0,28.94,South,180,0.0,0.0,89,0.00,,,0.71,WSDL version 420,2013-05-19 02:26:00,
2013-05-18 22:28:00,69.4,66.0,28.94,North,-999,-999.0,-999.0,89,0.00,,,0.71,WSDL version 420,2013-05-19 02:28:00,
2013-05-18 22:30:00,69.4,66.0,28.94,North,-999,-999.0,-999.0,89,0.00,,,0.71,WSDL version 420,2013-05-19 02:30:00,
2013-05-18 22:32:00,69.4,66.0,28.94,North,-999,-999.0,-999.0,89,0.00,,,0.71,WSDL version 420,2013-05-19 02:32:00,
2013-05-18 22:36:00,69.4,66.0,28.94,South,180,0.0,0.0,89,0.00,,,0.71,WSDL version 420,2013-05-19 02:36:00,
2013-05-18 22:40:00,69.4,66.0,28.94,North,-999,-999.0,-999.0,89,0.00,,,0.71,WSDL version 420,2013-05-19 02:40:00,
2013-05-18 22:44:00,69.3,65.8,28.91,South,180,0.0,0.0,89,0.00,,,0.71,WSDL version 420,2013-05-19 02:44:00,
2013-05-18 22:46:00,69.3,65.8,28.91,South,180,0.0,0.0,89,0.00,,,0.71,WSDL version 420,2013-05-19 02:46:00,
2013-05-18 22:50:00,69.3,65.9,28.91,South,180,0.0,0.0,90,0.00,,,0.71,WSDL version 420,2013-05-19 02:50:00,
2013-05-18 22:52:00,69.3,66.0,28.91,North,0,0.0,0.0,90,0.00,,,0.71,WSDL version 420,2013-05-19 02:52:00,
2013-05-18 22:54:00,69.3,66.2,28.91,North,-999,-999.0,-999.0,90,0.00,,,0.71,WSDL version 420,2013-05-19 02:54:00,
2013-05-18 22:56:00,69.3,66.2,28.91,South,180,0.0,0.0,90,0.00,,,0.71,WSDL version 420,2013-05-19 02:56:00,
2013-05-18 22:58:00,69.3,66.2,28.94,South,180,0.0,0.0,90,0.00,,,0.71,WSDL version 420,2013-05-19 02:58:00,
2013-05-18 23:04:00,69.3,66.2,28.94,North,-999,-999.0,-999.0,90,0.00,,,0.71,WSDL version 420,2013-05-19 03:04:00,
2013-05-18 23:06:00,69.3,66.2,28.94,South,180,0.0,0.0,90,0.00,,,0.71,WSDL version 420,2013-05-19 03:06:00,
2013-05-18 23:10:00,69.3,66.2,28.94,South,180,0.0,0.0,90,0.00,,,0.71,WSDL version 420,2013-05-19 03:10:00,
2013-05-18 23:12:00,69.3,66.2,28.91,South,180,0.0,0.0,90,0.00,,,0.71,WSDL version 420,2013-05-19 03:12:00,
2013-05-18 23:15:00,69.3,66.2,28.91,North,-999,-999.0,-999.0,90,0.00,,,0.71,WSDL version 420,2013-05-19 03:15:00,
2013-05-18 23:17:00,69.3,66.2,28.91,South,180,0.0,0.0,90,0.00,,,0.71,WSDL version 420,2013-05-19 03:17:00,
2013-05-18 23:19:00,69.3,66.2,28.91,South,180,0.0,0.0,90,0.00,,,0.71,WSDL version 420,2013-05-19 03:19:00,
2013-05-18 23:23:00,69.3,66.2,28.91,South,180,0.0,0.0,90,0.00,,,0.71,WSDL version 420,2013-05-19 03:23:00,
2013-05-18 23:29:00,69.3,66.2,28.91,North,-999,-999.0,-999.0,90,0.00,,,0.71,WSDL version 420,2013-05-19 03:29:00,
2013-05-18 23:31:00,69.3,66.2,28.91,North,-999,-999.0,-999.0,90,0.00,,,0.71,WSDL version 420,2013-05-19 03:31:00,
2013-05-18 23:35:00,69.3,66.2,28.91,North,-999,-999.0,-999.0,90,0.00,,,0.71,WSDL version 420,2013-05-19 03:35:00,
2013-05-18 23:39:00,69.3,66.2,28.91,North,-999,-999.0,-999.0,90,0.00,,,0.71,WSDL version 420,2013-05-19 03:39:00,
2013-05-18 23:41:00,69.3,66.3,28.91,South,180,0.0,0.0,91,0.00,,,0.71,WSDL version 420,2013-05-19 03:41:00,
2013-05-18 23:45:00,69.3,66.6,28.91,South,180,0.0,0.0,91,0.00,,,0.71,WSDL version 420,2013-05-19 03:45:00,
2013-05-18 23:47:00,69.3,66.6,28.91,North,0,0.0,0.0,91,0.00,,,0.71,WSDL version 420,2013-05-19 03:47:00,
2013-05-18 23:49:00,69.3,66.6,28.91,North,-999,-999.0,-999.0,91,0.00,,,0.71,WSDL version 420,2013-05-19 03:49:00,
2013-05-18 23:51:00,69.2,66.5,28.91,North,360,0.0,0.0,91,0.00,,,0.71,WSDL version 420,2013-05-19 03:51:00,
2013-05-18 23:53:00,69.1,66.4,28.91,North,360,0.0,0.0,91,0.00,,,0.71,WSDL version 420,2013-05-19 03:53:00,
2013-05-18 23:55:00,69.1,66.4,28.91,North,-999,-999.0,-999.0,91,0.00,,,0.71,WSDL version 420,2013-05-19 03:55:00,